createdAt,value
2023-03-30T00:01:02.929Z,10.90
2023-03-30T00:05:05.697Z,6.17
2023-03-30T00:09:06.927Z,7.93
2023-03-30T00:13:11.055Z,6.37
2023-03-30T00:17:12.286Z,7.43
2023-03-30T00:21:15.566Z,8.60
2023-03-30T00:25:17.073Z,10.67
2023-03-30T00:29:18.240Z,14.67
2023-03-30T00:33:27.603Z,9.70
2023-03-30T00:37:25.192Z,8.57
2023-03-30T00:41:27.361Z,13.33
2023-03-30T00:45:30.635Z,10.13
2023-03-30T00:49:33.712Z,9.37
2023-03-30T00:53:42.306Z,8.80
2023-03-30T00:57:43.858Z,12.17
2023-03-30T01:01:47.568Z,15.77
2023-03-30T01:05:49.465Z,8.57
2023-03-30T01:09:52.264Z,9.70
2023-03-30T01:14:05.903Z,9.20
2023-03-30T01:18:16.940Z,8.37
2023-03-30T01:22:55.199Z,9.23
2023-03-30T01:27:24.379Z,11.40
2023-03-30T01:31:32.717Z,13.33
2023-03-30T01:36:01.393Z,12.50
2023-03-30T01:40:15.384Z,15.93
2023-03-30T01:44:20.561Z,7.30
2023-03-30T01:48:42.793Z,9.30
2023-03-30T01:52:52.402Z,10.53
2023-03-30T01:56:57.440Z,11.50
2023-03-30T02:01:01.877Z,12.27
2023-03-30T02:05:05.490Z,9.53
2023-03-30T02:09:16.980Z,8.13
2023-03-30T02:13:19.770Z,10.77
2023-03-30T02:17:23.781Z,8.33
2023-03-30T02:21:26.771Z,9.57
2023-03-30T02:25:27.927Z,10.63
2023-03-30T02:29:31.094Z,8.70
2023-03-30T02:33:46.198Z,9.00
2023-03-30T02:37:59.837Z,9.07
2023-03-30T02:42:22.566Z,13.53
2023-03-30T02:46:49.267Z,9.07
2023-03-30T02:51:18.687Z,8.87
2023-03-30T02:55:41.734Z,8.00
2023-03-30T02:59:52.282Z,8.73
2023-03-30T03:03:57.456Z,7.63
2023-03-30T03:07:58.710Z,8.83
2023-03-30T03:11:59.854Z,8.50
2023-03-30T03:16:02.899Z,8.90
2023-03-30T03:20:07.241Z,9.90
2023-03-30T03:24:08.447Z,13.70
2023-03-30T03:28:09.594Z,8.83
2023-03-30T03:32:10.998Z,7.10
2023-03-30T03:36:14.728Z,10.77
2023-03-30T03:40:15.934Z,11.87
2023-03-30T03:44:17.103Z,10.63
2023-03-30T03:48:20.905Z,9.37
2023-03-30T03:52:22.405Z,12.83
2023-03-30T03:56:24.448Z,8.80
2023-03-30T04:00:26.019Z,10.33
2023-03-30T04:04:27.357Z,8.00
2023-03-30T04:08:28.795Z,11.13
2023-03-30T04:12:30.110Z,16.00
2023-03-30T04:16:31.371Z,10.37
2023-03-30T04:20:32.514Z,9.10
2023-03-30T04:24:34.962Z,12.27
2023-03-30T04:28:36.126Z,10.70
2023-03-30T04:32:38.210Z,10.80
2023-03-30T04:36:41.338Z,11.17
2023-03-30T04:40:42.512Z,11.17
2023-03-30T04:44:46.106Z,8.60
2023-03-30T04:48:47.566Z,8.70
2023-03-30T04:52:48.726Z,9.30
2023-03-30T04:56:50.017Z,13.27
2023-03-30T05:00:53.271Z,8.40
2023-03-30T05:04:54.484Z,12.63
2023-03-30T05:08:55.930Z,12.00
2023-03-30T05:12:57.080Z,10.20
2023-03-30T05:16:58.482Z,13.40
2023-03-30T05:21:00.775Z,14.30
2023-03-30T05:25:04.975Z,11.10
2023-03-30T05:29:07.011Z,15.90
2023-03-30T05:33:09.590Z,14.13
2023-03-30T05:37:10.782Z,10.70
2023-03-30T05:41:12.197Z,12.20
2023-03-30T05:45:14.149Z,14.07
2023-03-30T05:49:15.518Z,13.50
2023-03-30T05:53:16.859Z,12.20
2023-03-30T05:57:18.383Z,12.93
2023-03-30T06:01:20.593Z,9.97
2023-03-30T06:05:22.256Z,10.83
2023-03-30T06:09:24.805Z,18.43
2023-03-30T06:13:26.667Z,11.00
2023-03-30T06:17:29.077Z,15.37
2023-03-30T06:21:30.327Z,11.30
2023-03-30T06:25:31.476Z,10.10
2023-03-30T06:29:32.742Z,11.37
2023-03-30T06:33:33.925Z,14.83
2023-03-30T06:37:38.558Z,15.60
2023-03-30T06:41:39.915Z,10.00
2023-03-30T06:45:41.409Z,10.20
2023-03-30T06:49:42.543Z,8.13
2023-03-30T06:53:43.702Z,12.60
2023-03-30T06:57:44.871Z,10.90
2023-03-30T07:01:46.229Z,14.37
2023-03-30T07:05:51.690Z,13.90
2023-03-30T07:09:52.860Z,9.30
2023-03-30T07:13:55.915Z,8.57
2023-03-30T07:17:57.149Z,8.97
2023-03-30T07:21:58.402Z,7.80
2023-03-30T07:25:59.599Z,8.77
2023-03-30T07:30:10.323Z,13.27
2023-03-30T07:34:04.059Z,9.43
2023-03-30T07:38:05.231Z,10.40
2023-03-30T07:42:06.476Z,8.47
2023-03-30T07:46:11.213Z,8.53
2023-03-30T07:50:12.535Z,10.00
2023-03-30T07:54:13.766Z,14.43
2023-03-30T07:58:14.942Z,9.90
2023-03-30T08:02:16.736Z,7.43
2023-03-30T08:06:17.877Z,9.50
2023-03-30T08:10:19.054Z,12.23
2023-03-30T08:14:20.241Z,11.80
2023-03-30T08:18:21.499Z,8.10
2023-03-30T08:22:22.978Z,7.60
2023-03-30T08:26:25.755Z,8.00
2023-03-30T08:30:27.701Z,9.40
2023-03-30T08:34:29.228Z,6.67
2023-03-30T08:38:30.844Z,11.03
2023-03-30T08:42:47.580Z,9.07
2023-03-30T08:46:50.428Z,7.97
2023-03-30T08:51:16.995Z,7.90
2023-03-30T08:55:34.555Z,9.83
2023-03-30T09:00:03.591Z,7.60
2023-03-30T09:04:16.118Z,9.30
2023-03-30T09:08:21.890Z,9.13
2023-03-30T09:12:42.169Z,8.37
2023-03-30T09:17:08.294Z,7.30
2023-03-30T09:21:11.890Z,8.30
2023-03-30T09:25:36.710Z,6.73
2023-03-30T09:29:50.680Z,8.93
2023-03-30T09:34:19.868Z,7.53
2023-03-30T09:38:22.610Z,6.13
2023-03-30T09:42:39.449Z,8.60
2023-03-30T09:46:40.836Z,8.90
2023-03-30T09:50:45.054Z,9.13
2023-03-30T09:54:47.394Z,7.20
2023-03-30T09:58:48.543Z,8.63
2023-03-30T10:02:59.081Z,7.10
2023-03-30T10:07:09.835Z,8.00
2023-03-30T10:11:08.873Z,9.37
2023-03-30T10:15:13.970Z,7.10
2023-03-30T10:19:18.926Z,8.07
2023-03-30T10:23:23.014Z,6.37
2023-03-30T10:27:33.527Z,7.77
2023-03-30T10:31:37.261Z,11.00
2023-03-30T10:35:38.511Z,8.93
2023-03-30T10:39:42.481Z,5.90
2023-03-30T10:43:44.249Z,8.50
2023-03-30T10:48:01.094Z,9.57
2023-03-30T10:52:17.906Z,12.60
2023-03-30T10:56:22.888Z,6.63
2023-03-30T11:00:33.400Z,9.10
2023-03-30T11:04:44.130Z,5.37
2023-03-30T11:08:48.203Z,6.80
2023-03-30T11:12:53.173Z,5.00
2023-03-30T11:17:01.256Z,6.73
2023-03-30T11:21:21.056Z,4.43
2023-03-30T11:25:28.630Z,9.03
2023-03-30T11:29:48.421Z,8.00
2023-03-30T11:34:19.345Z,6.67
2023-03-30T11:38:43.269Z,7.60
2023-03-30T11:42:47.113Z,9.80
2023-03-30T11:47:27.384Z,5.93
2023-03-30T11:51:35.411Z,7.37
2023-03-30T11:55:52.574Z,7.90
2023-03-30T12:00:10.351Z,5.93
2023-03-30T12:04:18.250Z,10.20
2023-03-30T12:08:45.222Z,6.00
2023-03-30T12:12:49.559Z,6.63
2023-03-30T12:16:55.122Z,6.07
2023-03-30T12:21:15.659Z,6.43
2023-03-30T12:25:57.874Z,6.63
2023-03-30T12:30:06.276Z,5.07
2023-03-30T12:34:08.263Z,5.77
2023-03-30T12:38:13.877Z,6.10
2023-03-30T12:42:29.950Z,4.37
2023-03-30T12:46:42.165Z,8.30
2023-03-30T12:50:54.521Z,7.77
2023-03-30T12:55:16.932Z,3.60
2023-03-30T12:59:41.025Z,5.20
2023-03-30T13:03:54.580Z,5.90
2023-03-30T13:07:58.941Z,3.60
2023-03-30T13:12:03.858Z,7.93
2023-03-30T13:16:07.493Z,5.47
2023-03-30T13:20:28.870Z,3.57
2023-03-30T13:24:31.480Z,3.73
2023-03-30T13:29:07.375Z,6.07
2023-03-30T13:33:20.841Z,3.77
2023-03-30T13:37:44.592Z,7.37
2023-03-30T13:42:04.477Z,4.90
2023-03-30T13:46:27.685Z,4.80
2023-03-30T13:50:33.619Z,5.80
2023-03-30T13:54:39.235Z,4.17
2023-03-30T13:58:43.360Z,3.63
2023-03-30T14:02:44.820Z,6.10
2023-03-30T14:06:49.707Z,5.40
2023-03-30T14:10:52.592Z,6.10
2023-03-30T14:14:54.583Z,4.97
2023-03-30T14:19:13.126Z,7.73
2023-03-30T14:23:27.746Z,8.03
2023-03-30T14:27:35.078Z,6.43
2023-03-30T14:31:41.588Z,5.53
2023-03-30T14:35:46.837Z,6.70
2023-03-30T14:39:51.761Z,6.63
2023-03-30T14:44:02.734Z,4.43
2023-03-30T14:48:04.320Z,5.27
2023-03-30T14:52:19.255Z,3.30
2023-03-30T14:56:22.263Z,12.37
2023-03-30T15:00:24.463Z,11.43
2023-03-30T15:04:32.524Z,4.30
2023-03-30T15:08:38.935Z,6.00
2023-03-30T15:12:43.702Z,4.53
2023-03-30T15:16:47.377Z,4.60
2023-03-30T15:20:49.060Z,5.53
2023-03-30T15:24:51.308Z,4.47
2023-03-30T15:28:57.877Z,4.30
2023-03-30T15:32:59.066Z,3.60
2023-03-30T15:37:00.948Z,5.33
2023-03-30T15:41:06.280Z,4.40
2023-03-30T15:45:13.388Z,6.57
2023-03-30T15:49:22.704Z,4.40
2023-03-30T15:53:53.658Z,12.43
2023-03-30T15:57:55.059Z,10.20
2023-03-30T16:02:02.951Z,7.60
2023-03-30T16:06:04.657Z,4.83
2023-03-30T16:10:07.250Z,7.40
2023-03-30T16:14:13.730Z,5.67
2023-03-30T16:18:15.931Z,3.60
2023-03-30T16:22:17.096Z,8.30
2023-03-30T16:26:18.642Z,4.33
2023-03-30T16:30:26.201Z,4.07
2023-03-30T16:34:27.579Z,5.63
2023-03-30T16:38:29.222Z,6.87
2023-03-30T16:42:30.516Z,5.33
2023-03-30T16:46:32.592Z,4.43
2023-03-30T16:50:43.319Z,6.37
2023-03-30T16:54:45.560Z,5.60
2023-03-30T16:58:46.994Z,5.60
2023-03-30T17:02:48.453Z,5.73
2023-03-30T17:06:49.921Z,5.10
2023-03-30T17:10:54.122Z,6.53
2023-03-30T17:14:55.424Z,3.63
2023-03-30T17:18:57.254Z,5.37
2023-03-30T17:22:58.508Z,6.30
2023-03-30T17:26:59.996Z,6.60
2023-03-30T17:31:03.161Z,5.30
2023-03-30T17:35:05.720Z,7.27
2023-03-30T17:39:08.906Z,4.03
2023-03-30T17:43:10.591Z,4.63
2023-03-30T17:47:11.933Z,9.33
2023-03-30T17:51:16.653Z,7.50
2023-03-30T17:55:20.147Z,5.60
2023-03-30T17:59:21.999Z,5.63
2023-03-30T18:03:25.187Z,9.00
2023-03-30T18:07:26.560Z,3.77
2023-03-30T18:11:27.821Z,7.27
2023-03-30T18:15:29.334Z,5.40
2023-03-30T18:19:30.793Z,5.57
2023-03-30T18:23:33.394Z,9.53
2023-03-30T18:27:34.638Z,6.43
2023-03-30T18:31:35.843Z,4.57
2023-03-30T18:35:37.899Z,5.30
2023-03-30T18:39:39.821Z,8.23
2023-03-30T18:43:41.023Z,4.17
2023-03-30T18:47:42.851Z,5.10
2023-03-30T18:51:44.133Z,6.60
2023-03-30T18:55:47.730Z,8.03
2023-03-30T18:59:51.701Z,10.30
2023-03-30T19:03:52.989Z,6.30
2023-03-30T19:07:54.876Z,7.30
2023-03-30T19:11:56.174Z,4.67
2023-03-30T19:15:57.469Z,7.13
2023-03-30T19:19:58.656Z,3.90
2023-03-30T19:24:00.041Z,4.70
2023-03-30T19:28:04.245Z,4.73
2023-03-30T19:32:05.960Z,4.70
2023-03-30T19:36:08.830Z,7.30
2023-03-30T19:40:12.371Z,4.47
2023-03-30T19:44:13.843Z,5.87
2023-03-30T19:48:15.324Z,5.43
2023-03-30T19:52:16.843Z,5.33
2023-03-30T19:56:18.048Z,5.10
2023-03-30T20:00:19.619Z,4.17
2023-03-30T20:04:21.212Z,4.93
2023-03-30T20:08:24.675Z,4.93
2023-03-30T20:12:27.463Z,6.73
2023-03-30T20:16:29.474Z,4.93
2023-03-30T20:20:32.607Z,4.57
2023-03-30T20:24:33.900Z,7.07
2023-03-30T20:28:35.362Z,6.07
2023-03-30T20:32:37.006Z,4.30
2023-03-30T20:36:38.730Z,5.03
2023-03-30T20:40:39.900Z,6.73
2023-03-30T20:44:41.140Z,4.13
2023-03-30T20:48:44.431Z,6.93
2023-03-30T20:52:45.573Z,6.23
2023-03-30T20:56:46.882Z,6.03
2023-03-30T21:00:51.490Z,5.13
2023-03-30T21:04:56.036Z,7.80
2023-03-30T21:09:00.624Z,9.07
2023-03-30T21:13:01.820Z,7.70
2023-03-30T21:17:03.604Z,5.23
2023-03-30T21:21:07.808Z,5.50
2023-03-30T21:25:10.690Z,5.00
2023-03-30T21:29:11.863Z,6.77
2023-03-30T21:33:13.135Z,5.20
2023-03-30T21:37:14.330Z,9.70
2023-03-30T21:41:18.673Z,5.07
2023-03-30T21:45:20.053Z,8.63
2023-03-30T21:49:21.234Z,4.40
2023-03-30T21:53:22.439Z,5.60
2023-03-30T21:57:23.806Z,5.30
2023-03-30T22:01:25.401Z,4.20
2023-03-30T22:05:26.623Z,7.70
2023-03-30T22:09:27.829Z,5.10
2023-03-30T22:13:29.105Z,3.90
2023-03-30T22:17:32.267Z,5.63
2023-03-30T22:21:34.850Z,5.57
2023-03-30T22:25:38.029Z,7.37
2023-03-30T22:29:39.213Z,4.50
2023-03-30T22:33:40.910Z,6.00
2023-03-30T22:37:42.314Z,4.10
2023-03-30T22:41:43.499Z,5.63
2023-03-30T22:45:44.834Z,6.80
2023-03-30T22:49:46.850Z,3.93
2023-03-30T22:53:49.248Z,7.53
2023-03-30T22:57:55.920Z,3.90
2023-03-30T23:01:57.135Z,6.60
2023-03-30T23:06:01.472Z,7.70
2023-03-30T23:10:04.306Z,5.67
2023-03-30T23:14:07.391Z,6.07
2023-03-30T23:18:08.640Z,4.93
2023-03-30T23:22:11.473Z,8.40
2023-03-30T23:26:12.714Z,5.83
2023-03-30T23:30:14.306Z,10.87
2023-03-30T23:34:16.067Z,4.90
2023-03-30T23:38:17.262Z,6.30
2023-03-30T23:42:18.449Z,3.73
2023-03-30T23:46:19.971Z,3.87
2023-03-30T23:50:21.278Z,5.73
2023-03-30T23:54:22.731Z,4.17
2023-03-30T23:58:24.131Z,10.43
